Latest Weather Observations for Tasman Island

IDT60801

Issued at 11:41 am EST Tuesday 14 July 2020 (issued every 10 minutes, with the page automatically refreshed every 10 minutes)

About weather observations | Map of weather stations | Latest weather observations for TAS | Other Formats
Station Details ID: 094155 Name: TASMAN ISLAND Lat: -43.24 Lon: 148.00 Height: 240.0 m
Data from the previous 72 hours. | See also: Recent months at Tasman Island
Date/Time
EST
Temp
°C
App
Temp
°C
Dew
Point
°C
Rel
Hum
%
Delta-T
°C
Wind Press
QNH
hPa
Press
MSL
hPa
Rain since
9am
mm
Dir  Spd
km/h
Gust
km/h
Spd
kts
Gust
kts
14/11:30am 8.7 7.1 4.3 74 1.9 SE 2 9 1 5 1032.6 1033.0 0.0
14/11:00am 8.4 5.9 3.8 73 2.0 SSE 6 9 3 5 1033.0 1033.4 0.0
14/10:30am 8.5 6.4 4.1 74 1.9 SSE 4 7 2 4 1033.2 1033.6 0.0
14/10:00am 8.3 6.1 3.6 72 2.0 E 4 9 2 5 1033.3 1033.7 0.0
14/09:30am 8.0 5.9 3.7 74 1.9 ENE 4 11 2 6 1033.3 1033.7 0.0
14/09:00am 7.9 5.3 3.4 73 1.9 NNW 6 17 3 9 1033.4 1033.8 0.0
14/08:30am 7.8 5.7 3.8 76 1.7 SSW 4 7 2 4 1033.3 1033.7 0.0
14/08:00am 7.8 5.1 3.5 74 1.8 E 7 15 4 8 1033.2 1033.6 0.0
14/07:30am 7.8 5.3 3.8 76 1.7 SSW 6 13 3 7 1033.0 1033.4 0.0
14/07:00am 8.0 5.4 4.0 76 1.7 ENE 7 15 4 8 1033.0 1033.4 0.0
14/06:30am 8.0 6.3 4.0 76 1.8 ENE 2 9 1 5 1032.8 1033.2 0.0
14/06:00am 8.0 5.9 3.8 75 1.8 SSE 4 11 2 6 1032.6 1033.0 0.0
14/05:30am 7.9 5.8 3.8 75 1.8 ENE 4 7 2 4 1032.2 1032.6 0.0
14/05:00am 8.0 5.9 3.8 75 1.8 E 4 11 2 6 1032.0 1032.4 0.0
14/04:30am 8.1 5.4 3.6 73 2.0 ENE 7 17 4 9 1031.7 1032.2 0.0
14/04:00am 8.2 5.7 4.0 75 1.8 ENE 6 9 3 5 1031.4 1031.9 0.0
14/03:30am 8.2 5.7 3.9 74 1.9 E 6 13 3 7 1031.6 1032.1 0.0
14/03:00am 8.1 5.6 3.6 73 1.9 ENE 6 11 3 6 1031.5 1032.0 0.0
14/02:30am 8.1 5.6 3.8 74 1.9 NE 6 11 3 6 1031.7 1032.2 0.0
14/02:00am 8.2 5.7 4.0 75 1.8 ENE 6 11 3 6 1031.7 1032.2 0.0
14/01:30am 8.1 5.6 3.9 75 1.8 E 6 17 3 9 1031.6 1032.1 0.0
14/01:00am 8.0 5.9 3.8 75 1.8 SW 4 9 2 5 1031.4 1031.9 0.0
14/12:30am 8.1 6.4 3.8 74 1.9 SE 2 7 1 4 1031.6 1032.1 0.0
14/12:00am 8.1 5.6 3.6 73 1.9 E 6 13 3 7 1032.0 1032.4 0.0
 
Date/Time
EST
Temp
°C
App
Temp
°C
Dew
Point
°C
Rel
Hum
%
Delta-T
°C
Wind Press
QNH
hPa
Press
MSL
hPa
Rain since
9am
mm
Dir  Spd
km/h
Gust
km/h
Spd
kts
Gust
kts
13/11:30pm 8.1 5.4 3.6 73 2.0 NE 7 19 4 10 1032.2 1032.6 0.0
13/11:00pm 8.3 5.9 4.1 75 1.8 NE 6 11 3 6 1032.2 1032.6 0.0
13/10:30pm 8.1 6.3 3.6 73 2.0 N 2 6 1 3 1032.0 1032.4 0.0
13/10:00pm 8.0 5.9 3.8 75 1.8 NW 4 13 2 7 1032.1 1032.5 0.0
13/09:30pm 8.0 5.9 4.0 76 1.8 SSE 4 9 2 5 1031.8 1032.3 0.0
13/09:00pm 8.3 5.8 3.9 74 1.9 ENE 6 13 3 7 1031.7 1032.2 0.0
13/08:30pm 8.1 5.6 3.8 74 1.9 ENE 6 15 3 8 1031.5 1032.0 0.0
13/08:00pm 8.2 5.7 3.7 73 1.9 ENE 6 15 3 8 1031.4 1031.9 0.0
13/07:30pm 8.1 6.0 3.8 74 1.9 N 4 9 2 5 1031.3 1031.8 0.0
13/07:00pm 7.9 5.7 3.6 74 1.9 NW 4 9 2 5 1031.1 1031.6 0.0
13/06:30pm 8.2 5.5 3.5 72 2.0 NE 7 11 4 6 1030.9 1031.4 0.0
13/06:00pm 7.5 5.3 3.2 74 1.8 NE 4 9 2 5 1030.8 1031.3 0.0
13/05:30pm 7.8 5.2 3.3 73 1.9 E 6 9 3 5 1030.6 1031.1 0.0
13/05:00pm 7.8 5.6 3.1 72 2.0 NE 4 7 2 4 1030.5 1031.0 0.0
13/04:30pm 8.4 6.1 2.8 68 2.4 E 4 6 2 3 1030.4 1030.9 0.0
13/04:00pm 8.8 7.1 4.2 73 2.0 ESE 2 7 1 4 1030.3 1030.8 0.0
13/03:30pm 9.0 7.1 4.8 75 1.9 SE 4 6 2 3 1030.2 1030.7 0.0
13/03:00pm 9.0 6.4 3.4 68 2.4 ESE 6 11 3 6 1030.1 1030.6 0.0
13/02:30pm 9.2 6.4 3.4 67 2.5 E 7 17 4 9 1030.0 1030.5 0.0
13/02:00pm 9.8 7.4 4.2 68 2.5 E 6 9 3 5 1029.9 1030.3 0.0
13/01:30pm 10.2 7.9 4.6 68 2.5 SE 6 9 3 5 1029.9 1030.3 0.0
13/01:00pm 9.3 6.8 3.9 69 2.4 ESE 6 7 3 4 1030.0 1030.5 0.0
13/12:30pm 9.2 6.8 4.2 71 2.2 SE 6 9 3 5 1030.2 1030.7 0.0
13/12:00pm 9.3 7.3 4.3 71 2.2 SE 4 9 2 5 1030.4 1030.9 0.0
13/11:30am 9.5 7.5 4.5 71 2.3 ESE 4 7 2 4 1030.6 1031.1 0.0
13/11:00am 9.3 6.9 4.1 70 2.3 ESE 6 7 3 4 1030.7 1031.2 0.0
13/10:30am 9.1 6.6 3.9 70 2.3 E 6 7 3 4 1030.7 1031.2 0.0
13/10:00am 9.0 6.8 3.6 69 2.4 ENE 4 7 2 4 1030.5 1031.0 0.0
13/09:30am 8.6 6.9 4.0 73 2.0 SE 2 6 1 3 1030.4 1030.9 0.0
13/09:00am 7.9 6.6 5.9 87 0.9 WSW 2 4 1 2 1030.3 1030.8 0.2
13/08:30am 7.7 5.9 5.3 85 1.1 WSW 4 7 2 4 1030.1 1030.6 0.2
13/08:00am 7.8 6.0 3.3 73 1.9 S 2 6 1 3 1029.8 1030.2 0.2
13/07:30am 7.4 5.2 3.5 76 1.7 SE 4 9 2 5 1029.6 1030.0 0.2
13/07:00am 7.5 5.9 2.6 71 2.1 CALM 0 0 0 0 1029.2 1029.6 0.2
13/06:30am 7.4 5.4 2.3 70 2.1 SSE 2 6 1 3 1028.8 1029.2 0.2
13/06:00am 7.8 5.5 2.7 70 2.2 SE 4 6 2 3 1028.5 1028.9 0.2
13/05:30am 7.8 5.5 2.9 71 2.1 ENE 4 6 2 3 1028.3 1028.7 0.2
13/05:00am 7.4 5.8 4.4 81 1.3 SW 2 6 1 3 1028.3 1028.7 0.2
13/04:30am 7.3 5.5 5.6 89 0.8 W 4 6 2 3 1028.2 1028.6 0.2
13/04:00am 7.8 6.1 3.8 76 1.7 SSW 2 6 1 3 1028.2 1028.6 0.2
13/03:30am 7.7 5.8 4.7 81 1.3 SSW 4 6 2 3 1028.2 1028.6 0.2
13/03:00am 8.0 6.3 3.8 75 1.8 WSW 2 4 1 2 1028.2 1028.6 0.2
13/02:30am 8.0 5.5 3.5 73 2.0 SSE 6 11 3 6 1028.2 1028.6 0.2
13/02:00am 7.9 6.2 4.1 77 1.7 SW 2 6 1 3 1028.1 1028.5 0.2
13/01:30am 7.9 5.8 3.9 76 1.8 S 4 6 2 3 1027.9 1028.3 0.2
13/01:00am 7.4 5.8 4.7 83 1.2 S 2 7 1 4 1027.6 1028.0 0.2
13/12:30am 7.3 5.1 5.4 88 0.9 SW 6 7 3 4 1027.4 1027.9 0.2
13/12:00am 7.4 5.6 5.2 86 1.0 SSW 4 6 2 3 1027.4 1027.9 0.2
 
Date/Time
EST
Temp
°C
App
Temp
°C
Dew
Point
°C
Rel
Hum
%
Delta-T
°C
Wind Press
QNH
hPa
Press
MSL
hPa
Rain since
9am
mm
Dir  Spd
km/h
Gust
km/h
Spd
kts
Gust
kts
12/11:30pm 7.4 6.1 5.9 90 0.7 WSW 2 4 1 2 1027.3 1027.8 0.2
12/11:00pm 7.0 4.9 5.9 93 0.5 WSW 6 11 3 6 1027.2 1027.7 0.2
12/10:30pm 7.0 5.0 6.1 94 0.4 WSW 6 7 3 4 1027.0 1027.5 0.2
12/10:00pm 7.1 4.9 5.3 88 0.8 SW 6 9 3 5 1026.7 1027.2 0.2
12/09:30pm 7.3 5.0 5.9 91 0.6 W 7 11 4 6 1026.7 1027.2 0.2
12/09:00pm 7.3 5.1 6.2 93 0.5 S 7 11 4 6 1026.8 1027.3 0.0
12/08:30pm 7.2 4.1 5.7 90 0.7 SSW 11 15 6 8 1026.5 1027.0 0.0
12/08:00pm 7.0 4.0 5.9 93 0.5 SSW 11 15 6 8 1026.3 1026.7 0.0
12/07:30pm 7.4 5.5 6.5 94 0.4 SW 6 9 3 5 1026.0 1026.4 0.0
12/07:00pm 7.3 4.6 5.8 90 0.7 SSW 9 15 5 8 1025.8 1026.2 0.0
12/06:30pm 7.5 4.7 6.8 95 0.3 SSW 11 17 6 9 1025.4 1025.8 0.0
12/06:00pm 7.3 4.4 6.4 94 0.4 SSW 11 19 6 10 1025.1 1025.5 0.0
12/05:30pm 7.0 4.0 5.8 92 0.5 SSW 11 20 6 11 1024.9 1025.3 0.0
12/05:00pm 7.1 3.3 5.9 92 0.5 SSW 15 22 8 12 1024.6 1025.0 0.0
12/04:30pm 8.0 4.7 6.5 90 0.7 SSW 13 20 7 11 1024.2 1024.6 0.0
12/04:00pm 8.4 4.5 5.5 82 1.3 SSW 15 22 8 12 1023.9 1024.3 0.0
12/03:30pm 8.4 5.3 3.8 73 2.0 SSW 9 17 5 9 1023.8 1024.2 0.0
12/03:00pm 9.7 6.7 4.1 68 2.5 SW 9 15 5 8 1023.4 1023.8 0.0
12/02:30pm 9.6 6.6 4.0 68 2.5 SSW 9 13 5 7 1023.2 1023.6 0.0
12/02:00pm 9.1 6.1 4.3 72 2.1 SSW 9 15 5 8 1022.9 1023.3 0.0
12/01:30pm 9.9 6.6 4.5 69 2.4 SSW 11 17 6 9 1022.7 1023.1 0.0
12/01:00pm 9.8 7.0 5.0 72 2.2 SSW 9 13 5 7 1022.6 1023.0 0.0
12/12:30pm 10.0 7.1 4.6 69 2.4 SSW 9 17 5 9 1022.6 1023.0 0.0
12/12:00pm 8.9 6.0 4.5 74 2.0 S 9 17 5 9 1022.5 1022.9 0.0
12/11:30am 9.4 6.1 4.8 73 2.1 S 11 17 6 9 1022.5 1022.9 0.0
12/11:00am 8.9 5.6 4.7 75 1.9 S 11 20 6 11 1022.5 1022.9 0.0
12/10:30am 8.6 5.0 5.0 78 1.6 S 13 20 7 11 1022.4 1022.8 0.0
12/10:00am 8.6 5.1 5.4 80 1.5 S 13 22 7 12 1022.1 1022.5 0.0
12/09:30am 8.5 5.5 6.0 84 1.2 S 11 22 6 12 1021.7 1022.1 0.0
12/09:00am 8.7 5.8 6.7 87 0.9 S 11 20 6 11 1021.4 1021.8 3.2
12/08:30am 7.7 4.5 7.0 95 0.3 SSE 13 22 7 12 1021.1 1021.5 3.2
12/08:00am 7.8 4.6 6.7 93 0.5 S 13 20 7 11 1020.7 1021.1 3.2
12/07:30am 8.0 4.5 7.1 94 0.4 S 15 24 8 13 1020.5 1020.9 3.2
12/07:00am 7.9 4.2 6.5 91 0.6 SSW 15 24 8 13 1019.9 1020.3 3.2
12/06:30am 7.8 3.0 5.8 87 0.9 SSW 20 30 11 16 1019.4 1019.7 3.2
12/06:00am 7.9 2.8 5.9 87 0.9 SSW 22 32 12 17 1019.1 1019.4 3.2
12/05:30am 7.9 3.2 5.9 87 0.9 SSW 20 28 11 15 1018.9 1019.2 3.2
12/05:00am 8.1 3.6 6.1 87 0.9 SSW 19 28 10 15 1018.5 1018.9 3.2
12/04:30am 8.0 5.2 6.8 92 0.6 S 11 20 6 11 1018.4 1018.8 3.2
12/04:00am 8.1 4.9 7.0 93 0.5 SSW 13 24 7 13 1018.2 1018.6 3.2
12/03:30am 8.1 4.2 7.2 94 0.4 SSW 17 26 9 14 1018.0 1018.4 3.2
12/03:00am 8.5 4.4 7.7 95 0.4 SSW 19 26 10 14 1017.9 1018.3 3.2
12/02:30am 8.6 4.9 7.8 95 0.4 SSW 17 24 9 13 1017.8 1018.2 3.2
12/02:00am 8.6 4.6 8.3 98 0.1 SSW 19 24 10 13 1017.7 1018.1 3.2
12/01:30am 8.8 4.9 8.7 99 0.0 SSW 19 28 10 15 1017.5 1017.9 3.2
12/01:00am 8.5 7.4 8.4 99 0.0 SSW 4 13 2 7 1017.4 1017.8 3.2
12/12:30am 8.4 6.6 7.8 96 0.3 SW 7 22 4 12 1017.1 1017.5 0.4
12/12:00am 8.4 6.4 7.3 93 0.5 SW 7 19 4 10 1016.9 1017.3 0.0
 
Date/Time
EST
Temp
°C
App
Temp
°C
Dew
Point
°C
Rel
Hum
%
Delta-T
°C
Wind Press
QNH
hPa
Press
MSL
hPa
Rain since
9am
mm
Dir  Spd
km/h
Gust
km/h
Spd
kts
Gust
kts
11/11:30pm 9.0 7.0 7.1 88 0.9 W 7 24 4 13 1016.9 1017.3 0.0
11/11:00pm 8.9 6.6 7.4 90 0.7 W 9 22 5 12 1016.9 1017.3 0.0
11/10:30pm 8.7 5.7 7.5 92 0.6 W 13 22 7 12 1016.7 1017.1 0.0
11/10:00pm 8.6 5.9 7.4 92 0.6 W 11 22 6 12 1016.6 1017.0 0.0
11/09:30pm 8.8 6.4 7.1 89 0.8 W 9 24 5 13 1016.6 1017.0 0.0
11/09:00pm 8.8 6.4 6.8 87 0.9 W 9 19 5 10 1016.5 1016.9 0.0
11/08:30pm 9.1 6.9 6.0 81 1.4 W 7 17 4 9 1016.5 1016.9 0.0
11/08:00pm 9.0 6.3 5.6 79 1.6 W 9 17 5 9 1016.5 1016.9 0.0
11/07:30pm 9.2 6.1 5.6 78 1.7 W 11 20 6 11 1016.4 1016.8 0.0
11/07:00pm 9.2 6.6 5.9 80 1.5 W 9 17 5 9 1016.2 1016.6 0.0
11/06:30pm 9.3 6.2 5.5 77 1.7 WSW 11 19 6 10 1016.0 1016.3 0.0
11/06:00pm 9.4 6.7 5.4 76 1.8 W 9 17 5 9 1015.9 1016.2 0.0
11/05:30pm 9.1 6.3 5.1 76 1.8 WSW 9 15 5 8 1015.8 1016.1 0.0
11/05:00pm 9.1 6.2 4.9 75 1.9 WSW 9 13 5 7 1015.7 1016.0 0.0
11/04:30pm 8.8 6.3 5.0 77 1.7 W 7 9 4 5 1015.7 1016.0 0.0
11/04:00pm 9.0 6.9 5.7 80 1.5 W 6 9 3 5 1015.6 1015.9 0.0
11/03:30pm 9.4 6.7 5.4 76 1.8 W 9 13 5 7 1015.4 1015.7 0.0
11/03:00pm 9.9 7.0 4.5 69 2.4 WSW 9 15 5 8 1015.5 1015.8 0.0
11/02:30pm 9.6 7.4 5.4 75 1.9 WNW 6 7 3 4 1015.5 1015.8 0.0
11/02:00pm 9.5 7.3 5.1 74 2.0 W 6 7 3 4 1015.7 1016.0 0.0
11/01:30pm 10.0 7.9 5.8 75 2.0 W 6 7 3 4 1015.9 1016.2 0.0
11/01:00pm 10.9 8.5 4.4 64 3.0 WSW 6 7 3 4 1016.1 1016.5 0.0
11/12:30pm 11.0 8.6 4.2 63 3.1 W 6 9 3 5 1016.2 1016.6 0.0
11/12:00pm 10.9 8.3 4.4 64 3.0 W 7 11 4 6 1016.5 1016.9 0.0

Other formats

Comma delimited format used in spreadsheet applications
http://www.bom.gov.au/fwo/IDT60801/IDT60801.95986.axf

JavaScript Object Notation format (JSON) in row-major order
http://www.bom.gov.au/fwo/IDT60801/IDT60801.95986.json

Data quality

Most of these data are generated automatically and are frequently updated. Quality checks on data are not normally performed. It is possible for incorrect values to appear. Refer to information at About Latest Weather Observations and please check the disclaimer before using these data.